Time;durP1;ratioP1;P1;durP2;ratioP2;P2;SDS_P1;SDS_P2;PMS_P1;PMS_P2;Temp;Humidity;BMP_temperature;BMP_pressure;BME280_temperature;BME280_humidity;BME280_pressure;Samples;Min_cycle;Max_cycle;Signal;HPM_P1;HPM_P2
2023/07/27 00:00:29;;;;;;;3.42;1.50;;;;;;;;;;5138935;27;20021;-62
2023/07/27 00:02:54;;;;;;;3.13;1.53;;;;;;;;;;5129354;27;20027;-62
2023/07/27 00:05:20;;;;;;;4.13;1.50;;;;;;;;;;5135478;27;20039;-60
2023/07/27 00:07:45;;;;;;;3.50;1.50;;;;;;;;;;5141012;27;20438;-60
2023/07/27 00:10:10;;;;;;;3.60;1.60;;;;;;;;;;5129449;27;20022;-61
2023/07/27 00:12:35;;;;;;;3.87;1.50;;;;;;;;;;5140461;27;20487;-60
2023/07/27 00:15:00;;;;;;;3.88;1.63;;;;;;;;;;5142709;27;20029;-61
2023/07/27 00:17:25;;;;;;;4.03;1.53;;;;;;;;;;5126564;27;20026;-61
2023/07/27 00:19:51;;;;;;;5.15;1.88;;;;;;;;;;5139888;27;20031;-62
2023/07/27 00:22:16;;;;;;;3.10;1.30;;;;;;;;;;5139139;27;20019;-61
2023/07/27 00:24:41;;;;;;;3.57;1.33;;;;;;;;;;5124194;27;20037;-62
2023/07/27 00:27:06;;;;;;;4.07;1.40;;;;;;;;;;5130819;27;20056;-63
2023/07/27 00:29:31;;;;;;;3.73;1.50;;;;;;;;;;5133794;27;20062;-62
2023/07/27 00:31:57;;;;;;;3.87;1.63;;;;;;;;;;5134248;27;20459;-62
2023/07/27 00:34:22;;;;;;;4.33;1.60;;;;;;;;;;5138939;27;20043;-61
2023/07/27 00:36:47;;;;;;;3.87;1.60;;;;;;;;;;5131420;27;20046;-60
2023/07/27 00:39:12;;;;;;;4.20;1.30;;;;;;;;;;5130538;27;20023;-62
2023/07/27 00:41:40;;;;;;;4.17;1.30;;;;;;;;;;5131739;27;20371;-62
2023/07/27 00:44:06;;;;;;;4.05;1.73;;;;;;;;;;5130877;27;20547;-62
2023/07/27 00:46:31;;;;;;;3.40;1.30;;;;;;;;;;5137400;27;20023;-61
2023/07/27 00:48:56;;;;;;;4.47;1.33;;;;;;;;;;5130995;27;20055;-61
2023/07/27 00:51:21;;;;;;;3.20;1.20;;;;;;;;;;5131650;27;20014;-62
2023/07/27 00:53:47;;;;;;;4.67;1.40;;;;;;;;;;5131119;27;20023;-61
2023/07/27 00:56:12;;;;;;;4.00;1.40;;;;;;;;;;5128201;27;20483;-63
2023/07/27 00:58:38;;;;;;;4.23;1.37;;;;;;;;;;5126025;27;20375;-62
2023/07/27 01:01:04;;;;;;;4.30;1.50;;;;;;;;;;5131461;27;20378;-61
2023/07/27 01:03:29;;;;;;;3.42;1.40;;;;;;;;;;5131156;27;20375;-59
2023/07/27 01:05:54;;;;;;;4.17;1.37;;;;;;;;;;5131559;27;20026;-60
2023/07/27 01:08:19;;;;;;;3.40;1.30;;;;;;;;;;5131050;27;20019;-62
2023/07/27 01:10:47;;;;;;;4.23;1.30;;;;;;;;;;5131589;27;20441;-62
2023/07/27 01:13:18;;;;;;;3.70;1.35;;;;;;;;;;5129730;27;20098;-60
2023/07/27 01:15:44;;;;;;;3.50;1.45;;;;;;;;;;5131478;27;20015;-60
2023/07/27 01:18:29;;;;;;;3.72;1.48;;;;;;;;;;5131373;27;20027;-61
2023/07/27 01:21:01;;;;;;;3.60;1.40;;;;;;;;;;5130814;27;20030;-62
2023/07/27 01:23:37;;;;;;;2.95;1.23;;;;;;;;;;5134415;27;20029;-59
2023/07/27 01:26:25;;;;;;;3.95;1.45;;;;;;;;;;5133065;27;20022;-61
2023/07/27 01:28:56;;;;;;;4.35;1.58;;;;;;;;;;5131370;27;20019;-62
2023/07/27 01:31:23;;;;;;;4.90;1.65;;;;;;;;;;5129329;27;20111;-62
2023/07/27 01:33:59;;;;;;;3.60;1.50;;;;;;;;;;5135423;27;20034;-60
2023/07/27 01:36:26;;;;;;;2.60;1.05;;;;;;;;;;5136603;27;20042;-60
2023/07/27 01:38:52;;;;;;;4.68;1.50;;;;;;;;;;5136353;27;20022;-58
2023/07/27 01:41:18;;;;;;;4.43;1.52;;;;;;;;;;5142072;27;20045;-60
2023/07/27 01:43:44;;;;;;;4.28;1.40;;;;;;;;;;5130643;27;20562;-61
2023/07/27 01:46:10;;;;;;;3.80;1.33;;;;;;;;;;5143092;27;20478;-61
2023/07/27 01:48:39;;;;;;;3.47;1.30;;;;;;;;;;5133460;27;20643;-60
2023/07/27 01:51:06;;;;;;;3.42;1.40;;;;;;;;;;5132800;27;20023;-63
2023/07/27 01:53:31;;;;;;;;;;;;;;;;;;5133891;27;20019;-60
2023/07/27 01:55:58;;;;;;;4.53;1.60;;;;;;;;;;5122622;27;19960;-62
2023/07/27 01:58:24;;;;;;;3.85;1.60;;;;;;;;;;5123409;27;20037;-59
2023/07/27 02:00:49;;;;;;;4.43;1.40;;;;;;;;;;5138764;27;20091;-61
2023/07/27 02:03:14;;;;;;;4.30;1.70;;;;;;;;;;5142118;27;20030;-61
2023/07/27 02:05:40;;;;;;;4.70;1.50;;;;;;;;;;5136227;27;20023;-60
2023/07/27 02:08:05;;;;;;;4.20;1.50;;;;;;;;;;5140711;27;20015;-60
2023/07/27 02:10:30;;;;;;;5.53;1.70;;;;;;;;;;5138346;27;20015;-61
2023/07/27 02:13:11;;;;;;;3.40;1.60;;;;;;;;;;5148313;27;20127;-61
2023/07/27 02:15:42;;;;;;;5.25;1.55;;;;;;;;;;5135731;27;20050;-59
2023/07/27 02:18:10;;;;;;;4.07;1.77;;;;;;;;;;5140822;27;20031;-62
2023/07/27 02:20:36;;;;;;;3.67;1.60;;;;;;;;;;5120902;27;20035;-61
2023/07/27 02:23:01;;;;;;;4.63;1.50;;;;;;;;;;5141570;27;20025;-61
2023/07/27 02:25:27;;;;;;;4.45;1.70;;;;;;;;;;5126365;27;20016;-61
2023/07/27 02:27:52;;;;;;;4.35;1.90;;;;;;;;;;5124269;27;20039;-60
2023/07/27 02:30:18;;;;;;;4.03;1.70;;;;;;;;;;5128489;27;20042;-61
2023/07/27 02:32:43;;;;;;;3.83;1.80;;;;;;;;;;5127331;27;20057;-61
2023/07/27 02:35:08;;;;;;;3.77;1.67;;;;;;;;;;5136301;27;20452;-61
2023/07/27 02:37:33;;;;;;;3.60;1.42;;;;;;;;;;5130465;27;20020;-61
2023/07/27 02:39:58;;;;;;;4.38;1.60;;;;;;;;;;5138265;27;20095;-62
2023/07/27 02:42:24;;;;;;;5.57;1.70;;;;;;;;;;5132377;27;20038;-61
2023/07/27 02:44:49;;;;;;;3.93;1.70;;;;;;;;;;5138383;27;20020;-62
2023/07/27 02:47:14;;;;;;;4.03;1.75;;;;;;;;;;5129028;27;20481;-62
2023/07/27 02:49:39;;;;;;;4.27;1.63;;;;;;;;;;5134012;27;20060;-61
2023/07/27 02:52:04;;;;;;;3.47;1.48;;;;;;;;;;5129555;27;20057;-60
2023/07/27 02:54:29;;;;;;;5.00;1.60;;;;;;;;;;5128161;27;20023;-62
2023/07/27 02:56:55;;;;;;;4.20;1.80;;;;;;;;;;5132672;27;20030;-61
2023/07/27 02:59:20;;;;;;;4.10;1.80;;;;;;;;;;5130356;27;20019;-62
2023/07/27 03:01:45;;;;;;;4.18;1.80;;;;;;;;;;5120044;27;20019;-61
2023/07/27 03:04:10;;;;;;;3.92;1.65;;;;;;;;;;5136100;27;20510;-60
2023/07/27 03:06:35;;;;;;;4.95;1.52;;;;;;;;;;5137415;27;20017;-62
2023/07/27 03:09:01;;;;;;;4.03;1.83;;;;;;;;;;5152044;27;20019;-62
2023/07/27 03:11:26;;;;;;;3.90;1.70;;;;;;;;;;5128473;27;20464;-62
2023/07/27 03:13:52;;;;;;;4.13;1.70;;;;;;;;;;5142871;27;20480;-63
2023/07/27 03:16:17;;;;;;;4.38;1.83;;;;;;;;;;5124045;27;20486;-60
2023/07/27 03:18:42;;;;;;;6.57;1.77;;;;;;;;;;5135420;27;20363;-62
2023/07/27 03:21:07;;;;;;;4.73;1.73;;;;;;;;;;5137790;27;20039;-62
2023/07/27 03:23:33;;;;;;;6.60;2.30;;;;;;;;;;5133803;27;20497;-62
2023/07/27 03:25:58;;;;;;;4.15;1.95;;;;;;;;;;5139712;27;20019;-62
2023/07/27 03:28:23;;;;;;;4.35;1.80;;;;;;;;;;5128731;27;20022;-59
2023/07/27 03:30:48;;;;;;;4.43;2.10;;;;;;;;;;5135959;27;20019;-62
2023/07/27 03:33:14;;;;;;;4.37;2.07;;;;;;;;;;5134071;27;20023;-60
2023/07/27 03:35:39;;;;;;;4.27;2.27;;;;;;;;;;5136911;27;20031;-60
2023/07/27 03:38:04;;;;;;;4.83;2.53;;;;;;;;;;5129886;27;20054;-62
2023/07/27 03:40:29;;;;;;;4.80;2.33;;;;;;;;;;5138443;27;20465;-60
2023/07/27 03:42:54;;;;;;;5.17;2.40;;;;;;;;;;5140839;27;20023;-62
2023/07/27 03:45:20;;;;;;;5.67;2.07;;;;;;;;;;5125971;27;20026;-60
2023/07/27 03:47:45;;;;;;;5.37;1.90;;;;;;;;;;5130406;27;20031;-62
2023/07/27 03:50:10;;;;;;;4.75;2.13;;;;;;;;;;5130284;27;20389;-65
2023/07/27 03:52:36;;;;;;;4.88;2.25;;;;;;;;;;5138728;27;20061;-60
2023/07/27 03:55:01;;;;;;;4.18;1.90;;;;;;;;;;5127197;27;20479;-61
2023/07/27 03:57:26;;;;;;;4.97;2.40;;;;;;;;;;5141372;27;20423;-62
2023/07/27 03:59:55;;;;;;;4.78;2.20;;;;;;;;;;5130717;27;20017;-61
2023/07/27 04:02:21;;;;;;;5.88;2.45;;;;;;;;;;5131143;27;20022;-62
2023/07/27 04:04:47;;;;;;;4.30;2.30;;;;;;;;;;5137237;27;20079;-61
2023/07/27 04:07:12;;;;;;;;;;;;;;;;;;5128945;27;20023;-60
2023/07/27 04:09:37;;;;;;;6.82;2.58;;;;;;;;;;5133158;27;19918;-62
2023/07/27 04:12:03;;;;;;;5.05;2.50;;;;;;;;;;5146012;27;20027;-62
2023/07/27 04:14:28;;;;;;;5.13;2.47;;;;;;;;;;5155403;27;20041;-62
2023/07/27 04:16:53;;;;;;;6.00;2.40;;;;;;;;;;5139661;27;20487;-60
2023/07/27 04:19:18;;;;;;;3.97;1.70;;;;;;;;;;5135080;27;20019;-63
2023/07/27 04:21:43;;;;;;;5.53;2.27;;;;;;;;;;5135988;27;20092;-61
2023/07/27 04:24:08;;;;;;;4.50;2.10;;;;;;;;;;5139332;27;20374;-61
2023/07/27 04:26:33;;;;;;;4.53;1.90;;;;;;;;;;5143287;27;20034;-61
2023/07/27 04:28:59;;;;;;;5.15;1.80;;;;;;;;;;5126791;27;20466;-62
2023/07/27 04:31:24;;;;;;;5.15;2.10;;;;;;;;;;5123914;27;20034;-62
2023/07/27 04:33:49;;;;;;;4.90;1.90;;;;;;;;;;5132551;27;20029;-63
2023/07/27 04:36:14;;;;;;;4.47;2.00;;;;;;;;;;5119174;27;20023;-63
2023/07/27 04:38:39;;;;;;;4.50;2.10;;;;;;;;;;5140556;27;20019;-62
2023/07/27 04:41:04;;;;;;;3.60;1.67;;;;;;;;;;5122945;27;20024;-62
2023/07/27 04:43:30;;;;;;;3.83;1.77;;;;;;;;;;5135554;27;20064;-62
2023/07/27 04:45:55;;;;;;;5.15;1.75;;;;;;;;;;5133530;27;20061;-60
2023/07/27 04:48:20;;;;;;;4.37;2.10;;;;;;;;;;5128881;27;20486;-62
2023/07/27 04:50:47;;;;;;;4.60;1.77;;;;;;;;;;5117700;27;20051;-61
2023/07/27 04:53:12;;;;;;;4.15;1.92;;;;;;;;;;5130283;27;20127;-61
2023/07/27 04:55:37;;;;;;;5.00;2.30;;;;;;;;;;5125197;27;20137;-61
2023/07/27 04:58:02;;;;;;;5.28;2.17;;;;;;;;;;5133449;27;20015;-61
2023/07/27 05:00:27;;;;;;;4.63;2.40;;;;;;;;;;5131825;27;20015;-61
2023/07/27 05:02:52;;;;;;;4.47;2.10;;;;;;;;;;5130742;27;20482;-62
2023/07/27 05:05:18;;;;;;;5.40;1.90;;;;;;;;;;5131730;27;20013;-62
2023/07/27 05:07:43;;;;;;;3.87;1.87;;;;;;;;;;5132864;27;20470;-62
2023/07/27 05:10:08;;;;;;;4.37;1.97;;;;;;;;;;5132323;27;20103;-62
2023/07/27 05:12:33;;;;;;;4.27;1.70;;;;;;;;;;5122561;27;20445;-62
2023/07/27 05:14:59;;;;;;;3.90;1.70;;;;;;;;;;5124744;27;20025;-62
2023/07/27 05:17:24;;;;;;;4.20;2.10;;;;;;;;;;5126671;27;20542;-61
2023/07/27 05:19:49;;;;;;;3.60;1.80;;;;;;;;;;5123126;27;20036;-62
2023/07/27 05:22:14;;;;;;;3.67;1.50;;;;;;;;;;5122762;27;20031;-62
2023/07/27 05:24:40;;;;;;;4.40;2.00;;;;;;;;;;5124626;27;20076;-61
2023/07/27 05:27:05;;;;;;;5.27;2.23;;;;;;;;;;5115303;27;20490;-62
2023/07/27 05:29:30;;;;;;;4.50;1.97;;;;;;;;;;5126880;27;20019;-62
2023/07/27 05:31:55;;;;;;;5.77;1.90;;;;;;;;;;5120738;27;20056;-63
2023/07/27 05:34:20;;;;;;;5.03;1.83;;;;;;;;;;5113037;27;20425;-62
2023/07/27 05:36:45;;;;;;;4.75;1.52;;;;;;;;;;5118430;27;20046;-62
2023/07/27 05:39:11;;;;;;;5.57;2.03;;;;;;;;;;5116664;27;20075;-62
2023/07/27 05:41:36;;;;;;;3.83;1.63;;;;;;;;;;5118916;27;20398;-60
2023/07/27 05:44:01;;;;;;;3.70;1.70;;;;;;;;;;5121702;27;20031;-61
2023/07/27 05:46:26;;;;;;;6.05;2.00;;;;;;;;;;5143646;27;20587;-60
2023/07/27 05:48:51;;;;;;;5.53;2.30;;;;;;;;;;5146206;27;20019;-60
2023/07/27 05:51:17;;;;;;;4.13;1.80;;;;;;;;;;5125975;27;20027;-61
2023/07/27 05:53:44;;;;;;;4.63;1.90;;;;;;;;;;5127794;27;20062;-60
2023/07/27 05:56:09;;;;;;;4.88;1.95;;;;;;;;;;5145939;27;20043;-62
2023/07/27 05:58:35;;;;;;;3.93;2.07;;;;;;;;;;5136812;27;20031;-60
2023/07/27 06:01:01;;;;;;;7.05;2.10;;;;;;;;;;5141257;27;20377;-61
2023/07/27 06:03:27;;;;;;;4.38;2.20;;;;;;;;;;5144205;27;20058;-61
2023/07/27 06:05:52;;;;;;;4.78;1.95;;;;;;;;;;5136534;27;20139;-60
2023/07/27 06:08:17;;;;;;;4.47;2.00;;;;;;;;;;5127661;27;20079;-63
2023/07/27 06:10:42;;;;;;;4.43;1.85;;;;;;;;;;5141849;27;20026;-61
2023/07/27 06:13:07;;;;;;;4.43;1.90;;;;;;;;;;5122515;27;20710;-62
2023/07/27 06:15:32;;;;;;;4.37;1.80;;;;;;;;;;5139674;27;20064;-62
2023/07/27 06:17:58;;;;;;;4.07;1.90;;;;;;;;;;5149342;27;20663;-61
2023/07/27 06:20:23;;;;;;;5.40;2.00;;;;;;;;;;5133664;27;20026;-61
2023/07/27 06:22:48;;;;;;;3.93;1.60;;;;;;;;;;5128031;27;20026;-61
2023/07/27 06:25:13;;;;;;;6.07;2.37;;;;;;;;;;5121917;27;20019;-61
2023/07/27 06:27:38;;;;;;;4.77;1.70;;;;;;;;;;5130910;27;20023;-63
2023/07/27 06:30:04;;;;;;;6.43;1.80;;;;;;;;;;5131196;27;20046;-61
2023/07/27 06:32:29;;;;;;;4.82;2.15;;;;;;;;;;5130603;27;20051;-60
2023/07/27 06:34:54;;;;;;;4.97;2.10;;;;;;;;;;5131198;27;20609;-61
2023/07/27 06:37:19;;;;;;;4.15;1.80;;;;;;;;;;5122917;27;20040;-62
2023/07/27 06:39:44;;;;;;;4.80;1.90;;;;;;;;;;5128655;27;20039;-62
2023/07/27 06:42:10;;;;;;;5.43;1.80;;;;;;;;;;5134463;27;20372;-61
2023/07/27 06:44:35;;;;;;;4.77;1.93;;;;;;;;;;5149809;27;20533;-63
2023/07/27 06:47:00;;;;;;;4.63;1.70;;;;;;;;;;5146724;27;20031;-62
2023/07/27 06:49:25;;;;;;;4.83;1.80;;;;;;;;;;5124704;27;20059;-61
2023/07/27 06:51:50;;;;;;;4.00;1.80;;;;;;;;;;5127904;27;20110;-63
2023/07/27 06:54:15;;;;;;;3.77;1.70;;;;;;;;;;5128432;27;20031;-61
2023/07/27 06:56:41;;;;;;;4.90;1.83;;;;;;;;;;5120340;27;20429;-63
2023/07/27 06:59:06;;;;;;;7.93;2.13;;;;;;;;;;5144406;27;20050;-62
2023/07/27 07:01:31;;;;;;;4.83;2.00;;;;;;;;;;5137648;27;20428;-61
2023/07/27 07:03:56;;;;;;;5.50;1.92;;;;;;;;;;5141203;27;20042;-62
2023/07/27 07:06:22;;;;;;;4.40;1.80;;;;;;;;;;5146618;27;20019;-62
2023/07/27 07:08:47;;;;;;;6.07;2.00;;;;;;;;;;5154298;27;20412;-61
2023/07/27 07:11:13;;;;;;;4.50;1.70;;;;;;;;;;5121745;27;20428;-61
2023/07/27 07:13:38;;;;;;;5.00;2.10;;;;;;;;;;5112735;28;20400;-62
2023/07/27 07:16:04;;;;;;;3.77;1.70;;;;;;;;;;5112823;27;20478;-60
2023/07/27 07:18:29;;;;;;;5.53;1.75;;;;;;;;;;5112829;28;20030;-61
2023/07/27 07:20:54;;;;;;;4.35;1.73;;;;;;;;;;5112736;28;20144;-62
2023/07/27 07:23:19;;;;;;;4.38;1.90;;;;;;;;;;5112192;28;20038;-62
2023/07/27 07:25:44;;;;;;;4.83;1.80;;;;;;;;;;5112351;27;20364;-61
2023/07/27 07:28:10;;;;;;;5.23;2.17;;;;;;;;;;5112807;28;20027;-62
2023/07/27 07:30:38;;;;;;;4.83;1.97;;;;;;;;;;5112488;28;20493;-62
2023/07/27 07:33:03;;;;;;;4.47;1.90;;;;;;;;;;5111845;28;20149;-63
2023/07/27 07:35:29;;;;;;;4.30;2.07;;;;;;;;;;5124547;27;20105;-63
2023/07/27 07:37:54;;;;;;;4.67;2.07;;;;;;;;;;5132981;27;20027;-63
2023/07/27 07:40:23;;;;;;;4.90;2.07;;;;;;;;;;5133052;27;20026;-63
2023/07/27 07:42:49;;;;;;;4.55;1.70;;;;;;;;;;5132182;27;20027;-62
2023/07/27 07:45:14;;;;;;;5.23;1.60;;;;;;;;;;5132686;27;20030;-61
2023/07/27 07:47:39;;;;;;;6.43;1.93;;;;;;;;;;5132823;27;20019;-61
2023/07/27 07:50:04;;;;;;;5.33;1.70;;;;;;;;;;5132897;27;20025;-61
2023/07/27 07:52:30;;;;;;;4.63;1.80;;;;;;;;;;5132367;27;20022;-62
2023/07/27 07:54:56;;;;;;;7.20;2.13;;;;;;;;;;5132382;27;20031;-61
2023/07/27 07:57:21;;;;;;;3.75;1.52;;;;;;;;;;5132764;27;20359;-63
2023/07/27 07:59:46;;;;;;;3.90;1.50;;;;;;;;;;5132017;27;20027;-60
2023/07/27 08:02:11;;;;;;;3.80;1.63;;;;;;;;;;5132272;27;20474;-63
2023/07/27 08:04:37;;;;;;;5.03;1.80;;;;;;;;;;5132059;27;20387;-61
2023/07/27 08:07:02;;;;;;;6.80;1.80;;;;;;;;;;5132645;27;20026;-63
2023/07/27 08:09:27;;;;;;;4.53;1.80;;;;;;;;;;5132380;27;20498;-63
2023/07/27 08:11:53;;;;;;;4.57;1.67;;;;;;;;;;5124318;27;20027;-63
2023/07/27 08:14:19;;;;;;;6.07;1.75;;;;;;;;;;5111226;28;20028;-61
2023/07/27 08:16:44;;;;;;;3.53;1.57;;;;;;;;;;5112087;28;20474;-61
2023/07/27 08:19:09;;;;;;;4.75;1.85;;;;;;;;;;5111825;28;20019;-61
2023/07/27 08:21:34;;;;;;;4.23;1.63;;;;;;;;;;5111808;28;20019;-61
2023/07/27 08:23:59;;;;;;;3.63;1.37;;;;;;;;;;5111098;28;20020;-63
2023/07/27 08:26:24;;;;;;;3.93;1.50;;;;;;;;;;5111711;28;20019;-62
2023/07/27 08:28:50;;;;;;;5.13;1.73;;;;;;;;;;5111431;28;20080;-62
2023/07/27 08:31:15;;;;;;;4.28;1.70;;;;;;;;;;5111699;28;20084;-61
2023/07/27 08:33:40;;;;;;;5.47;1.70;;;;;;;;;;5115275;27;20038;-64
2023/07/27 08:36:05;;;;;;;4.28;1.50;;;;;;;;;;5131854;27;20387;-63
2023/07/27 08:38:31;;;;;;;4.93;1.90;;;;;;;;;;5131973;27;20075;-61
2023/07/27 08:40:57;;;;;;;4.03;1.60;;;;;;;;;;5130647;27;20015;-62
2023/07/27 08:43:22;;;;;;;4.40;1.73;;;;;;;;;;5110821;28;20465;-63
2023/07/27 08:45:47;;;;;;;4.00;1.73;;;;;;;;;;5111220;28;20125;-62
2023/07/27 08:48:14;;;;;;;4.57;1.70;;;;;;;;;;5111501;28;20415;-63
2023/07/27 08:50:39;;;;;;;5.22;1.80;;;;;;;;;;5111124;28;20387;-62
2023/07/27 08:53:04;;;;;;;4.00;1.70;;;;;;;;;;5110307;27;20365;-61
2023/07/27 08:55:29;;;;;;;4.27;1.80;;;;;;;;;;5111020;28;20015;-61
2023/07/27 08:57:55;;;;;;;4.57;1.70;;;;;;;;;;5111329;28;20475;-63
2023/07/27 09:00:20;;;;;;;;;;;;;;;;;;5111550;28;20024;-61
2023/07/27 09:02:46;;;;;;;4.68;1.60;;;;;;;;;;5110639;28;19916;-60
2023/07/27 09:05:12;;;;;;;4.37;1.60;;;;;;;;;;5110247;28;20062;-61
2023/07/27 09:07:38;;;;;;;5.55;1.70;;;;;;;;;;5113665;28;20051;-60
2023/07/27 09:10:05;;;;;;;6.13;1.80;;;;;;;;;;5116736;27;20020;-61
2023/07/27 09:12:32;;;;;;;5.75;1.98;;;;;;;;;;5120863;27;20472;-62
2023/07/27 09:14:57;;;;;;;5.10;1.83;;;;;;;;;;5122516;27;20127;-63
2023/07/27 09:17:22;;;;;;;4.60;1.65;;;;;;;;;;5118545;27;20483;-62
2023/07/27 09:19:50;;;;;;;4.80;1.60;;;;;;;;;;5116038;28;20028;-61
2023/07/27 09:22:15;;;;;;;3.95;1.65;;;;;;;;;;5115173;28;20444;-61
2023/07/27 09:24:40;;;;;;;6.27;2.00;;;;;;;;;;5114730;28;20104;-62
2023/07/27 09:27:09;;;;;;;6.10;1.80;;;;;;;;;;5115491;28;20019;-61
2023/07/27 09:29:34;;;;;;;4.85;1.60;;;;;;;;;;5115709;27;20149;-62
2023/07/27 09:32:00;;;;;;;5.77;1.50;;;;;;;;;;5115221;27;20439;-63
2023/07/27 09:34:30;;;;;;;4.80;1.65;;;;;;;;;;5116058;27;20083;-62
2023/07/27 09:36:58;;;;;;;4.75;1.77;;;;;;;;;;5115779;27;20018;-61
2023/07/27 09:39:26;;;;;;;3.90;1.70;;;;;;;;;;5115353;28;20012;-61
2023/07/27 09:41:52;;;;;;;4.55;1.67;;;;;;;;;;5115483;28;20012;-62
2023/07/27 09:44:18;;;;;;;4.10;1.63;;;;;;;;;;5115303;28;20026;-61
2023/07/27 09:46:44;;;;;;;3.88;1.52;;;;;;;;;;5115152;28;20023;-61
2023/07/27 09:49:10;;;;;;;5.60;1.83;;;;;;;;;;5114706;28;20016;-61
2023/07/27 09:51:35;;;;;;;;;;;;;;;;;;5115333;27;20047;-62
2023/07/27 09:54:01;;;;;;;5.70;1.60;;;;;;;;;;5114086;28;19966;-61
2023/07/27 09:56:30;;;;;;;4.17;1.67;;;;;;;;;;5114377;28;20080;-61
2023/07/27 09:58:55;;;;;;;3.75;1.60;;;;;;;;;;5114503;28;20056;-63
2023/07/27 10:01:20;;;;;;;5.27;1.80;;;;;;;;;;5114268;28;20096;-62
2023/07/27 10:03:46;;;;;;;4.18;1.50;;;;;;;;;;5112244;28;20050;-61
2023/07/27 10:06:11;;;;;;;3.95;1.50;;;;;;;;;;5113098;28;20083;-63
2023/07/27 10:08:37;;;;;;;4.15;1.70;;;;;;;;;;5113115;28;20047;-63
2023/07/27 10:11:02;;;;;;;4.93;1.60;;;;;;;;;;5112911;28;20104;-62
2023/07/27 10:13:27;;;;;;;5.07;1.75;;;;;;;;;;5111786;28;20031;-62
2023/07/27 10:15:53;;;;;;;4.30;1.90;;;;;;;;;;5112486;27;20408;-63
2023/07/27 10:18:26;;;;;;;5.50;1.92;;;;;;;;;;5112455;28;20024;-63
2023/07/27 10:20:51;;;;;;;4.28;1.92;;;;;;;;;;5111417;28;20041;-63
2023/07/27 10:23:18;;;;;;;5.43;1.70;;;;;;;;;;5111672;28;20482;-61
2023/07/27 10:25:55;;;;;;;5.03;1.80;;;;;;;;;;5112647;28;20020;-62
2023/07/27 10:28:41;;;;;;;6.05;1.70;;;;;;;;;;5112885;28;20015;-63
2023/07/27 10:31:16;;;;;;;6.53;1.90;;;;;;;;;;5117015;28;20007;-63
2023/07/27 10:33:45;;;;;;;5.55;1.63;;;;;;;;;;5131348;28;20511;-62
2023/07/27 10:36:11;;;;;;;4.68;1.67;;;;;;;;;;5132784;27;20027;-63
2023/07/27 10:38:36;;;;;;;5.30;1.50;;;;;;;;;;5128578;27;20011;-63
2023/07/27 10:41:14;;;;;;;5.70;1.90;;;;;;;;;;5112724;28;20433;-62
2023/07/27 10:43:59;;;;;;;3.78;1.40;;;;;;;;;;5111832;28;20031;-62
2023/07/27 10:46:24;;;;;;;4.15;1.60;;;;;;;;;;5112074;28;20599;-62
2023/07/27 10:48:57;;;;;;;3.50;1.60;;;;;;;;;;5112676;28;20099;-62
2023/07/27 10:51:22;;;;;;;3.83;1.52;;;;;;;;;;5112454;28;20069;-61
2023/07/27 10:53:47;;;;;;;4.88;1.50;;;;;;;;;;5111344;28;20023;-62
2023/07/27 10:56:13;;;;;;;6.03;1.90;;;;;;;;;;5112362;28;20639;-62
2023/07/27 10:58:39;;;;;;;5.45;2.00;;;;;;;;;;5110892;28;20027;-63
2023/07/27 11:01:04;;;;;;;5.50;1.90;;;;;;;;;;5112164;28;20034;-61
2023/07/27 11:03:29;;;;;;;7.15;2.15;;;;;;;;;;5073113;28;1057878;-63
2023/07/27 11:06:02;;;;;;;5.80;2.43;;;;;;;;;;5113278;28;20038;-62
2023/07/27 11:08:27;;;;;;;4.30;1.70;;;;;;;;;;5112991;28;20019;-61
2023/07/27 11:10:52;;;;;;;5.87;1.70;;;;;;;;;;5112849;28;20030;-62
2023/07/27 11:13:21;;;;;;;4.07;1.70;;;;;;;;;;5112365;28;20497;-62
2023/07/27 11:15:47;;;;;;;9.38;2.15;;;;;;;;;;5112765;28;20061;-62
2023/07/27 11:18:19;;;;;;;5.13;1.70;;;;;;;;;;5111372;27;20020;-63
2023/07/27 11:20:45;;;;;;;4.40;1.70;;;;;;;;;;5112484;27;20023;-62
2023/07/27 11:23:10;;;;;;;4.00;1.80;;;;;;;;;;5112153;28;20022;-63
2023/07/27 11:25:35;;;;;;;4.07;1.50;;;;;;;;;;5112993;28;20098;-62
2023/07/27 11:28:00;;;;;;;5.80;2.20;;;;;;;;;;5112906;28;20103;-61
2023/07/27 11:30:26;;;;;;;4.37;1.60;;;;;;;;;;5121719;27;20011;-62
2023/07/27 11:32:57;;;;;;;4.78;1.70;;;;;;;;;;5132421;27;20046;-63
2023/07/27 11:35:22;;;;;;;4.88;1.95;;;;;;;;;;5127715;27;20019;-63
2023/07/27 11:37:47;;;;;;;5.57;1.63;;;;;;;;;;5113116;28;20080;-63
2023/07/27 11:40:19;;;;;;;5.10;1.73;;;;;;;;;;5114132;28;20384;-61
2023/07/27 11:42:44;;;;;;;9.13;2.03;;;;;;;;;;5113452;28;20407;-63
2023/07/27 11:45:10;;;;;;;5.80;1.40;;;;;;;;;;5112453;28;20477;-61
2023/07/27 11:47:39;;;;;;;5.53;1.73;;;;;;;;;;5112746;28;20020;-62
2023/07/27 11:50:06;;;;;;;3.72;1.58;;;;;;;;;;5112547;28;20379;-61
2023/07/27 11:52:31;;;;;;;5.97;1.80;;;;;;;;;;5112099;28;20022;-62
2023/07/27 11:54:56;;;;;;;5.70;1.67;;;;;;;;;;5111687;28;20111;-63
2023/07/27 11:57:27;;;;;;;4.82;1.80;;;;;;;;;;5112077;28;20477;-62
2023/07/27 12:00:04;;;;;;;6.05;1.85;;;;;;;;;;5112278;28;20016;-62
2023/07/27 12:02:32;;;;;;;4.93;1.77;;;;;;;;;;5111242;28;20069;-61
2023/07/27 12:04:59;;;;;;;3.83;1.65;;;;;;;;;;5111642;27;20110;-61
2023/07/27 12:07:25;;;;;;;5.68;1.73;;;;;;;;;;5112118;28;20056;-63
2023/07/27 12:09:51;;;;;;;4.13;1.73;;;;;;;;;;5111796;28;20543;-62
2023/07/27 12:12:16;;;;;;;11.82;2.45;;;;;;;;;;5111781;28;20046;-63
2023/07/27 12:14:44;;;;;;;6.07;1.95;;;;;;;;;;5110696;27;20027;-61
2023/07/27 12:17:10;;;;;;;4.88;1.75;;;;;;;;;;5111536;28;20042;-61
2023/07/27 12:19:35;;;;;;;5.00;1.80;;;;;;;;;;5111809;28;20051;-62
2023/07/27 12:22:00;;;;;;;4.30;1.47;;;;;;;;;;5111774;28;20105;-63
2023/07/27 12:24:25;;;;;;;4.00;1.60;;;;;;;;;;5110923;28;20394;-62
2023/07/27 12:26:51;;;;;;;5.00;1.73;;;;;;;;;;5111553;28;20051;-63
2023/07/27 12:29:16;;;;;;;4.80;1.85;;;;;;;;;;5119435;27;20047;-62
2023/07/27 12:31:41;;;;;;;4.25;1.30;;;;;;;;;;5132088;27;20027;-63
2023/07/27 12:34:06;;;;;;;5.13;1.80;;;;;;;;;;5131234;27;20390;-63
2023/07/27 12:36:32;;;;;;;4.88;1.70;;;;;;;;;;5131823;27;20019;-62
2023/07/27 12:38:58;;;;;;;4.72;2.10;;;;;;;;;;5131646;27;20022;-60
2023/07/27 12:41:23;;;;;;;5.20;1.63;;;;;;;;;;5131951;27;20379;-62
2023/07/27 12:43:48;;;;;;;5.20;1.80;;;;;;;;;;5130953;27;20432;-63
2023/07/27 12:46:13;;;;;;;5.13;2.08;;;;;;;;;;5124657;27;20097;-62
2023/07/27 12:48:38;;;;;;;5.60;2.10;;;;;;;;;;5110640;28;20027;-63
2023/07/27 12:51:03;;;;;;;4.10;1.93;;;;;;;;;;5109803;28;20672;-63
2023/07/27 12:53:29;;;;;;;4.47;2.00;;;;;;;;;;5109772;28;20095;-62
2023/07/27 12:55:54;;;;;;;5.27;1.80;;;;;;;;;;5111097;28;20105;-61
2023/07/27 12:58:19;;;;;;;4.17;1.87;;;;;;;;;;5111149;28;20024;-61
2023/07/27 13:00:44;;;;;;;3.93;1.60;;;;;;;;;;5110758;28;20035;-62
2023/07/27 13:03:09;;;;;;;4.57;1.90;;;;;;;;;;5110144;28;20472;-62
2023/07/27 13:05:35;;;;;;;4.27;2.00;;;;;;;;;;5111078;28;20019;-61
2023/07/27 13:08:00;;;;;;;4.18;1.83;;;;;;;;;;5110358;28;20364;-63
2023/07/27 13:10:25;;;;;;;5.22;2.20;;;;;;;;;;5109699;28;20020;-63
2023/07/27 13:12:50;;;;;;;5.53;2.00;;;;;;;;;;5110318;28;20027;-62
2023/07/27 13:15:16;;;;;;;4.87;1.90;;;;;;;;;;5110939;28;20016;-64
2023/07/27 13:17:42;;;;;;;;;;;;;;;;;;5111800;28;20027;-64
2023/07/27 13:20:08;;;;;;;4.20;2.13;;;;;;;;;;5112301;28;19907;-62
2023/07/27 13:22:33;;;;;;;;;;;;;;;;;;5112821;28;20042;-64
2023/07/27 13:24:58;;;;;;;4.97;1.83;;;;;;;;;;5113574;28;19903;-63
2023/07/27 13:27:23;;;;;;;5.03;2.17;;;;;;;;;;5115221;28;20319;-63
2023/07/27 13:29:49;;;;;;;5.37;2.00;;;;;;;;;;5132668;28;20045;-62
2023/07/27 13:32:14;;;;;;;5.40;2.10;;;;;;;;;;5131418;28;20482;-63
2023/07/27 13:34:39;;;;;;;6.57;2.27;;;;;;;;;;5130868;28;20461;-63
2023/07/27 13:37:05;;;;;;;5.20;2.27;;;;;;;;;;5131786;28;20030;-63
2023/07/27 13:39:30;;;;;;;4.78;1.90;;;;;;;;;;5131221;27;20031;-63
2023/07/27 13:41:55;;;;;;;4.57;1.77;;;;;;;;;;5131398;27;20011;-61
2023/07/27 13:44:21;;;;;;;5.10;2.63;;;;;;;;;;5130946;27;20420;-62
2023/07/27 13:46:46;;;;;;;7.65;2.70;;;;;;;;;;5131470;28;20020;-61
2023/07/27 13:49:11;;;;;;;4.40;2.30;;;;;;;;;;5131176;28;20061;-60
2023/07/27 13:51:36;;;;;;;6.15;3.00;;;;;;;;;;5131231;27;20027;-62
2023/07/27 13:54:01;;;;;;;5.93;2.60;;;;;;;;;;5132207;28;20118;-63
2023/07/27 13:56:27;;;;;;;6.33;2.10;;;;;;;;;;5131344;27;20478;-60
2023/07/27 13:58:52;;;;;;;6.10;2.50;;;;;;;;;;5134847;27;20019;-62
2023/07/27 14:01:17;;;;;;;7.25;2.67;;;;;;;;;;5134955;27;20019;-63
2023/07/27 14:03:42;;;;;;;5.03;2.50;;;;;;;;;;5134307;27;20034;-62
2023/07/27 14:06:07;;;;;;;5.50;2.40;;;;;;;;;;5138043;27;20108;-60
2023/07/27 14:08:32;;;;;;;6.90;3.00;;;;;;;;;;5145434;27;20019;-62
2023/07/27 14:10:58;;;;;;;5.67;2.53;;;;;;;;;;5135715;27;20489;-62
2023/07/27 14:13:23;;;;;;;4.67;2.13;;;;;;;;;;5121469;27;20035;-62
2023/07/27 14:15:48;;;;;;;4.93;2.20;;;;;;;;;;5113315;27;20386;-63
2023/07/27 14:18:13;;;;;;;4.17;2.07;;;;;;;;;;5114227;28;20015;-64
2023/07/27 14:20:38;;;;;;;8.87;2.97;;;;;;;;;;5113910;28;20051;-64
2023/07/27 14:23:03;;;;;;;6.57;2.33;;;;;;;;;;5112950;28;20260;-63
2023/07/27 14:25:29;;;;;;;4.90;2.37;;;;;;;;;;5113710;28;20080;-63
2023/07/27 14:27:54;;;;;;;7.13;2.20;;;;;;;;;;5129566;27;20405;-61
2023/07/27 14:30:19;;;;;;;5.25;2.60;;;;;;;;;;5133995;27;20026;-63
2023/07/27 14:32:44;;;;;;;6.73;2.30;;;;;;;;;;5133879;27;20029;-64
2023/07/27 14:35:09;;;;;;;5.30;2.50;;;;;;;;;;5133751;27;20126;-61
2023/07/27 14:37:35;;;;;;;5.07;1.83;;;;;;;;;;5129763;27;20452;-62